Time;durP1;ratioP1;P1;durP2;ratioP2;P2;SDS_P1;SDS_P2;PMS_P1;PMS_P2;Temp;Humidity;BMP_temperature;BMP_pressure;BME280_temperature;BME280_humidity;BME280_pressure;Samples;Min_cycle;Max_cycle;Signal;HPM_P1;HPM_P2
2023/05/04 00:02:22;;;;;;;9.50;5.97;;;12.80;53.20;;;;;;5071212;28;20396;-62
2023/05/04 00:04:51;;;;;;;10.10;6.45;;;12.80;53.40;;;;;;5067279;28;20028;-62
2023/05/04 00:07:16;;;;;;;10.13;6.25;;;12.80;53.50;;;;;;5068753;28;20134;-61
2023/05/04 00:09:42;;;;;;;9.77;5.85;;;12.80;53.60;;;;;;5067273;28;20090;-62
2023/05/04 00:12:08;;;;;;;11.68;5.90;;;12.80;53.70;;;;;;5055579;28;20036;-62
2023/05/04 00:14:35;;;;;;;10.20;6.95;;;12.80;53.70;;;;;;5069884;28;20021;-62
2023/05/04 00:17:03;;;;;;;9.52;5.82;;;12.70;53.80;;;;;;5073377;28;20107;-62
2023/05/04 00:19:29;;;;;;;9.48;5.82;;;12.70;53.90;;;;;;5072839;28;20086;-63
2023/05/04 00:21:55;;;;;;;10.52;5.97;;;12.70;54.00;;;;;;5071661;28;20021;-62
2023/05/04 00:24:20;;;;;;;11.23;6.25;;;12.70;54.10;;;;;;5067551;28;20033;-62
2023/05/04 00:26:46;;;;;;;10.57;6.35;;;12.60;54.20;;;;;;5068506;28;20377;-62
2023/05/04 00:29:12;;;;;;;9.40;6.43;;;12.60;54.20;;;;;;5073163;28;20031;-62
2023/05/04 00:31:37;;;;;;;10.75;5.88;;;12.60;54.30;;;;;;5061319;28;20114;-62
2023/05/04 00:34:03;;;;;;;10.23;6.20;;;12.60;54.40;;;;;;5066270;28;20133;-62
2023/05/04 00:36:29;;;;;;;10.27;5.65;;;12.60;54.40;;;;;;5071525;28;20048;-62
2023/05/04 00:38:55;;;;;;;9.57;6.00;;;12.60;54.50;;;;;;5073806;28;20040;-61
2023/05/04 00:41:21;;;;;;;9.98;5.95;;;12.60;54.60;;;;;;5071986;28;20044;-62
2023/05/04 00:43:47;;;;;;;10.90;5.97;;;12.60;54.70;;;;;;5071699;28;20107;-61
2023/05/04 00:46:14;;;;;;;9.38;6.03;;;12.50;54.80;;;;;;5072053;28;20037;-62
2023/05/04 00:48:40;;;;;;;9.07;6.05;;;12.50;54.90;;;;;;5072771;28;20037;-61
2023/05/04 00:51:07;;;;;;;10.02;6.43;;;12.50;55.00;;;;;;5065920;28;20032;-61
2023/05/04 00:53:36;;;;;;;11.45;6.40;;;12.50;55.00;;;;;;5071958;28;20020;-61
2023/05/04 00:56:03;;;;;;;11.10;5.88;;;12.50;55.10;;;;;;5064718;28;20159;-62
2023/05/04 00:58:31;;;;;;;9.98;5.25;;;12.50;55.10;;;;;;5056159;28;20051;-62
2023/05/04 01:00:56;;;;;;;10.63;6.32;;;12.40;55.20;;;;;;5069956;28;20029;-62
2023/05/04 01:03:24;;;;;;;9.18;5.50;;;12.40;55.30;;;;;;5073876;28;20054;-61
2023/05/04 01:06:28;;;;;;;10.52;6.22;;;12.40;55.30;;;;;;5067481;28;20020;-62
2023/05/04 01:09:15;;;;;;;10.02;6.40;;;12.40;55.40;;;;;;5042349;28;20094;-62
2023/05/04 01:12:07;;;;;;;9.77;6.05;;;12.40;55.40;;;;;;5070306;28;20082;-62
2023/05/04 01:14:35;;;;;;;11.95;6.30;;;12.30;55.40;;;;;;5071992;28;20104;-62
2023/05/04 01:17:04;;;;;;;10.35;6.20;;;12.30;55.40;;;;;;5061383;28;20024;-61
2023/05/04 01:19:29;;;;;;;9.20;6.13;;;12.20;55.50;;;;;;5073576;28;20027;-62
2023/05/04 01:21:56;;;;;;;10.00;6.35;;;12.20;55.70;;;;;;5070135;28;20024;-62
2023/05/04 01:24:25;;;;;;;9.25;5.90;;;12.20;55.70;;;;;;5073387;28;20453;-62
2023/05/04 01:27:07;;;;;;;10.23;5.93;;;12.20;55.80;;;;;;5066836;28;20045;-61
2023/05/04 01:29:58;;;;;;;9.00;6.05;;;12.20;55.80;;;;;;5069097;28;20086;-61
2023/05/04 01:32:28;;;;;;;9.07;5.78;;;12.20;55.90;;;;;;5066023;28;20042;-61
2023/05/04 01:34:55;;;;;;;12.13;6.30;;;12.10;55.90;;;;;;5075584;28;20078;-61
2023/05/04 01:37:21;;;;;;;11.30;5.80;;;12.10;56.00;;;;;;5067179;28;20067;-61
2023/05/04 01:39:46;;;;;;;9.38;5.32;;;12.10;56.10;;;;;;5077490;28;20388;-62
2023/05/04 01:42:12;;;;;;;10.43;5.57;;;12.00;56.10;;;;;;5070730;28;20469;-61
2023/05/04 01:44:39;;;;;;;9.77;6.15;;;12.10;56.20;;;;;;5077241;28;20117;-61
2023/05/04 01:47:05;;;;;;;9.25;6.30;;;12.00;56.10;;;;;;5066470;28;20117;-61
2023/05/04 01:49:31;;;;;;;11.98;6.30;;;12.00;56.20;;;;;;5074758;28;20384;-61
2023/05/04 01:51:57;;;;;;;10.73;5.55;;;12.00;56.30;;;;;;5066026;28;20123;-62
2023/05/04 01:54:23;;;;;;;15.07;6.80;;;12.00;56.30;;;;;;5072192;28;20112;-62
2023/05/04 01:56:49;;;;;;;9.45;5.82;;;12.00;56.40;;;;;;5071921;28;20123;-61
2023/05/04 01:59:15;;;;;;;9.90;6.57;;;12.00;56.50;;;;;;5075580;28;20024;-62
2023/05/04 02:01:41;;;;;;;9.48;6.30;;;12.00;56.50;;;;;;5074857;28;20043;-61
2023/05/04 02:04:07;;;;;;;11.25;6.43;;;11.90;56.60;;;;;;5073964;28;20044;-62
2023/05/04 02:06:33;;;;;;;10.60;5.85;;;11.90;56.60;;;;;;5072778;28;20572;-61
2023/05/04 02:08:59;;;;;;;12.55;6.13;;;11.90;56.60;;;;;;5066909;28;20108;-61
2023/05/04 02:11:24;;;;;;;10.10;6.10;;;11.90;56.60;;;;;;5074845;28;20483;-61
2023/05/04 02:13:52;;;;;;;12.15;6.53;;;11.90;56.70;;;;;;5073412;28;20021;-61
2023/05/04 02:16:18;;;;;;;12.75;5.80;;;11.90;56.70;;;;;;5072196;28;20089;-62
2023/05/04 02:18:43;;;;;;;10.57;5.95;;;11.80;56.70;;;;;;5066132;28;20028;-62
2023/05/04 02:21:09;;;;;;;9.63;6.35;;;11.80;56.80;;;;;;5076432;28;20390;-61
2023/05/04 02:23:35;;;;;;;9.60;6.05;;;11.70;56.80;;;;;;5061768;28;20028;-61
2023/05/04 02:26:01;;;;;;;9.30;6.18;;;11.80;56.90;;;;;;5063481;28;20091;-61
2023/05/04 02:28:27;;;;;;;11.25;5.95;;;11.70;56.90;;;;;;5071567;28;20021;-62
2023/05/04 02:30:52;;;;;;;9.55;6.00;;;11.70;57.00;;;;;;5076314;28;20457;-61
2023/05/04 02:33:18;;;;;;;11.07;5.78;;;11.70;57.10;;;;;;5072897;28;20028;-62
2023/05/04 02:35:44;;;;;;;9.40;5.90;;;11.70;57.20;;;;;;5068689;28;20017;-61
2023/05/04 02:38:10;;;;;;;9.55;5.70;;;11.70;57.20;;;;;;5064878;28;20047;-61
2023/05/04 02:40:35;;;;;;;8.60;6.05;;;11.70;57.30;;;;;;5067740;28;20021;-62
2023/05/04 02:43:01;;;;;;;10.63;6.13;;;11.60;57.30;;;;;;5061435;28;20099;-61
2023/05/04 02:45:27;;;;;;;11.25;5.80;;;11.60;57.40;;;;;;5056108;28;20017;-62
2023/05/04 02:47:53;;;;;;;9.48;5.68;;;11.60;57.40;;;;;;5055803;28;20112;-61
2023/05/04 02:50:19;;;;;;;9.85;6.13;;;11.50;57.40;;;;;;5068671;28;20101;-62
2023/05/04 02:52:44;;;;;;;9.73;6.13;;;11.50;57.50;;;;;;5074015;28;20468;-61
2023/05/04 02:55:10;;;;;;;12.43;6.60;;;11.50;57.50;;;;;;5072365;28;20116;-62
2023/05/04 02:57:36;;;;;;;8.73;5.85;;;11.50;57.60;;;;;;5069833;28;20084;-61
2023/05/04 03:00:03;;;;;;;11.55;6.43;;;11.50;57.60;;;;;;5071471;28;20029;-61
2023/05/04 03:02:29;;;;;;;9.80;5.68;;;11.50;57.70;;;;;;5073063;28;20443;-61
2023/05/04 03:04:54;;;;;;;10.63;6.07;;;11.50;57.70;;;;;;5056274;28;20031;-61
2023/05/04 03:07:20;;;;;;;9.63;5.88;;;11.50;57.70;;;;;;5072641;28;20043;-61
2023/05/04 03:09:46;;;;;;;9.27;5.93;;;11.50;57.70;;;;;;5066018;28;20036;-61
2023/05/04 03:12:12;;;;;;;8.65;5.78;;;11.50;57.70;;;;;;5070833;28;20024;-61
2023/05/04 03:14:38;;;;;;;9.52;5.85;;;11.50;57.70;;;;;;5067861;28;20383;-61
2023/05/04 03:17:04;;;;;;;10.73;5.80;;;11.50;57.70;;;;;;5068901;28;20066;-61
2023/05/04 03:19:29;;;;;;;10.75;6.63;;;11.50;57.80;;;;;;5059006;28;20037;-61
2023/05/04 03:21:55;;;;;;;10.82;6.10;;;11.50;57.80;;;;;;5066242;28;20445;-61
2023/05/04 03:24:21;;;;;;;10.65;6.80;;;11.50;57.80;;;;;;5071002;28;20074;-61
2023/05/04 03:26:47;;;;;;;9.70;5.97;;;11.40;57.80;;;;;;5070231;28;20047;-61
2023/05/04 03:29:13;;;;;;;10.30;6.03;;;11.40;57.90;;;;;;5063407;28;20450;-61
2023/05/04 03:31:39;;;;;;;12.23;6.47;;;11.40;57.90;;;;;;5073714;28;20042;-61
2023/05/04 03:34:05;;;;;;;10.05;6.10;;;11.40;58.00;;;;;;5065846;28;20023;-61
2023/05/04 03:36:31;;;;;;;10.88;6.47;;;11.40;58.00;;;;;;5071636;28;20036;-61
2023/05/04 03:38:57;;;;;;;12.90;6.20;;;11.30;58.00;;;;;;5071803;28;20376;-62
2023/05/04 03:41:23;;;;;;;8.73;5.47;;;11.30;58.10;;;;;;5067979;28;20078;-62
2023/05/04 03:43:49;;;;;;;10.18;5.80;;;11.30;58.20;;;;;;5070983;28;20024;-61
2023/05/04 03:46:15;;;;;;;11.40;6.55;;;11.30;58.20;;;;;;5070789;28;20043;-61
2023/05/04 03:48:41;;;;;;;10.60;7.05;;;11.30;58.20;;;;;;5066146;28;20024;-61
2023/05/04 03:51:10;;;;;;;10.27;6.18;;;11.30;58.20;;;;;;5070546;28;20078;-61
2023/05/04 03:53:36;;;;;;;11.13;6.82;;;11.20;58.20;;;;;;5069371;28;20493;-61
2023/05/04 03:56:03;;;;;;;9.13;6.07;;;11.20;58.30;;;;;;5070392;28;20052;-61
2023/05/04 03:58:29;;;;;;;9.77;5.78;;;11.20;58.30;;;;;;5069592;28;20108;-62
2023/05/04 04:00:59;;;;;;;10.90;6.35;;;11.20;58.40;;;;;;5064532;28;20461;-61
2023/05/04 04:03:26;;;;;;;10.68;6.35;;;11.20;58.40;;;;;;5071671;28;20058;-61
2023/05/04 04:05:53;;;;;;;11.23;6.18;;;11.20;58.50;;;;;;5065136;28;20049;-61
2023/05/04 04:08:19;;;;;;;10.95;6.32;;;11.20;58.50;;;;;;5071272;28;20435;-61
2023/05/04 04:10:46;;;;;;;11.60;6.45;;;11.10;58.50;;;;;;5070361;28;20024;-61
2023/05/04 04:13:12;;;;;;;10.82;6.57;;;11.10;58.60;;;;;;5064973;28;20083;-61
2023/05/04 04:15:39;;;;;;;10.30;6.35;;;11.10;58.60;;;;;;5071634;28;20025;-61
2023/05/04 04:18:04;;;;;;;11.68;6.75;;;11.10;58.70;;;;;;5066552;28;20023;-61
2023/05/04 04:20:31;;;;;;;9.88;6.35;;;11.10;58.70;;;;;;5068598;28;20025;-61
2023/05/04 04:22:57;;;;;;;10.35;6.65;;;11.10;58.80;;;;;;5064867;28;20016;-61
2023/05/04 04:25:23;;;;;;;9.73;6.75;;;11.10;58.80;;;;;;5066632;28;20339;-61
2023/05/04 04:27:49;;;;;;;10.85;6.40;;;11.10;58.80;;;;;;5068713;28;20098;-61
2023/05/04 04:30:15;;;;;;;11.95;7.03;;;11.10;58.80;;;;;;5068769;28;20029;-61
2023/05/04 04:32:41;;;;;;;10.35;7.05;;;11.10;58.90;;;;;;5060749;28;20434;-61
2023/05/04 04:35:07;;;;;;;13.32;7.20;;;11.10;58.90;;;;;;5064047;28;20029;-61
2023/05/04 04:37:33;;;;;;;11.10;6.97;;;11.10;58.90;;;;;;5053803;28;20017;-61
2023/05/04 04:40:00;;;;;;;13.70;7.15;;;11.10;58.90;;;;;;5050085;28;20338;-62
2023/05/04 04:42:26;;;;;;;11.10;6.80;;;11.10;58.90;;;;;;5061442;28;20140;-61
2023/05/04 04:44:52;;;;;;;9.98;6.72;;;11.10;58.90;;;;;;5065432;28;20127;-61
2023/05/04 04:47:18;;;;;;;11.30;6.97;;;11.10;58.90;;;;;;5058016;28;20442;-61
2023/05/04 04:49:43;;;;;;;11.43;7.68;;;11.20;58.90;;;;;;5063989;28;20028;-61
2023/05/04 04:52:09;;;;;;;10.88;6.88;;;11.20;58.90;;;;;;5057563;28;20021;-61
2023/05/04 04:54:35;;;;;;;11.32;6.88;;;11.10;58.80;;;;;;5061974;28;20457;-61
2023/05/04 04:57:01;;;;;;;13.40;7.47;;;11.20;58.80;;;;;;5056265;28;20174;-61
2023/05/04 04:59:27;;;;;;;10.77;6.68;;;11.20;58.80;;;;;;5059491;28;20326;-61
2023/05/04 05:01:52;;;;;;;11.60;6.82;;;11.20;58.80;;;;;;5055719;28;20032;-61
2023/05/04 05:04:18;;;;;;;9.85;6.60;;;11.20;58.80;;;;;;5063523;28;20035;-61
2023/05/04 05:06:44;;;;;;;10.75;6.88;;;11.20;58.70;;;;;;5053633;28;20028;-62
2023/05/04 05:09:10;;;;;;;11.25;7.07;;;11.30;58.80;;;;;;5055772;28;20033;-62
2023/05/04 05:11:36;;;;;;;13.38;6.85;;;11.30;58.70;;;;;;5056876;28;20051;-62
2023/05/04 05:14:02;;;;;;;12.00;6.70;;;11.40;58.60;;;;;;5055081;28;20040;-62
2023/05/04 05:16:27;;;;;;;11.32;7.03;;;11.40;58.60;;;;;;5057293;28;20029;-62
2023/05/04 05:18:53;;;;;;;10.77;7.00;;;11.50;58.60;;;;;;5053095;28;20021;-62
2023/05/04 05:21:19;;;;;;;12.60;6.68;;;11.50;58.50;;;;;;5054882;28;20115;-62
2023/05/04 05:23:45;;;;;;;11.27;6.63;;;11.60;58.50;;;;;;5055096;28;20033;-62
2023/05/04 05:26:10;;;;;;;10.13;6.18;;;11.60;58.40;;;;;;5068263;28;20024;-62
2023/05/04 05:28:36;;;;;;;9.55;6.57;;;11.70;58.30;;;;;;5074012;28;20368;-62
2023/05/04 05:31:02;;;;;;;10.50;6.93;;;11.80;58.20;;;;;;5064311;28;20342;-62
2023/05/04 05:33:28;;;;;;;10.40;6.38;;;11.90;58.00;;;;;;5071755;28;20028;-62
2023/05/04 05:35:54;;;;;;;9.30;6.20;;;12.10;57.70;;;;;;5068093;28;20035;-62
2023/05/04 05:38:20;;;;;;;8.75;6.03;;;12.30;58.00;;;;;;5073541;28;20349;-62
2023/05/04 05:40:47;;;;;;;10.57;6.28;;;12.50;57.00;;;;;;5072432;28;20085;-62
2023/05/04 05:43:13;;;;;;;8.63;5.72;;;12.70;56.70;;;;;;5073434;28;20029;-62
2023/05/04 05:45:39;;;;;;;10.07;6.35;;;12.80;56.50;;;;;;5065763;28;20283;-62
2023/05/04 05:48:05;;;;;;;11.93;6.28;;;13.00;56.20;;;;;;5073426;28;20028;-62
2023/05/04 05:50:30;;;;;;;12.27;6.28;;;13.20;55.90;;;;;;5071634;28;20464;-62
2023/05/04 05:52:56;;;;;;;10.15;6.50;;;13.30;55.60;;;;;;5073320;28;20036;-62
2023/05/04 05:55:22;;;;;;;11.02;6.13;;;13.40;55.50;;;;;;5071968;28;20036;-62
2023/05/04 05:57:48;;;;;;;10.68;6.00;;;13.50;55.40;;;;;;5065475;28;20037;-62
2023/05/04 06:00:14;;;;;;;10.05;6.13;;;13.60;55.30;;;;;;5070067;28;20110;-62
2023/05/04 06:02:40;;;;;;;12.38;6.45;;;13.70;55.10;;;;;;5065208;28;20033;-61
2023/05/04 06:05:07;;;;;;;10.27;6.28;;;13.80;54.90;;;;;;5062637;28;20125;-61
2023/05/04 06:07:32;;;;;;;9.25;6.18;;;13.80;54.80;;;;;;5070037;28;20036;-61
2023/05/04 06:09:58;;;;;;;10.73;6.78;;;13.80;54.60;;;;;;5060626;28;20032;-62
2023/05/04 06:12:24;;;;;;;10.68;6.65;;;13.80;54.70;;;;;;5071876;28;20100;-61
2023/05/04 06:14:49;;;;;;;13.82;6.90;;;13.90;54.60;;;;;;5077144;28;20063;-62
2023/05/04 06:17:16;;;;;;;10.90;6.75;;;13.90;54.50;;;;;;5074982;28;20465;-62
2023/05/04 06:19:41;;;;;;;12.13;5.82;;;14.00;54.40;;;;;;5076549;28;20016;-62
2023/05/04 06:22:07;;;;;;;9.32;6.28;;;14.10;54.20;;;;;;5072525;28;20025;-62
2023/05/04 06:24:33;;;;;;;11.38;6.47;;;14.20;54.00;;;;;;5073493;28;20044;-62
2023/05/04 06:26:59;;;;;;;11.38;5.82;;;14.30;53.80;;;;;;5068261;28;20438;-62
2023/05/04 06:29:24;;;;;;;12.95;6.63;;;14.30;53.60;;;;;;5068459;28;20029;-62
2023/05/04 06:31:50;;;;;;;10.02;6.47;;;14.40;53.60;;;;;;5068879;28;20028;-62
2023/05/04 06:34:16;;;;;;;10.50;6.50;;;14.50;53.60;;;;;;5066050;28;20029;-62
2023/05/04 06:36:42;;;;;;;9.73;6.25;;;14.60;53.40;;;;;;5066588;28;20017;-62
2023/05/04 06:39:08;;;;;;;11.00;6.25;;;14.60;53.30;;;;;;5076582;28;20214;-62
2023/05/04 06:41:34;;;;;;;10.32;5.65;;;14.70;53.10;;;;;;5072440;28;20104;-63
2023/05/04 06:44:01;;;;;;;13.80;5.80;;;14.80;53.00;;;;;;5073831;28;20116;-63
2023/05/04 06:46:26;;;;;;;11.27;6.15;;;14.90;52.90;;;;;;5063581;28;20087;-63
2023/05/04 06:48:53;;;;;;;11.98;6.55;;;14.90;52.70;;;;;;5064973;28;20382;-62
2023/05/04 06:51:19;;;;;;;9.57;5.53;;;15.10;52.50;;;;;;5071644;28;20027;-62
2023/05/04 06:53:46;;;;;;;9.85;5.75;;;15.20;52.40;;;;;;5075905;28;20170;-63
2023/05/04 06:56:11;;;;;;;8.90;6.00;;;15.30;52.30;;;;;;5072116;28;20033;-62
2023/05/04 06:58:37;;;;;;;14.43;6.07;;;15.30;52.10;;;;;;5075039;28;20099;-63
2023/05/04 07:01:03;;;;;;;10.95;6.38;;;15.30;52.00;;;;;;5067216;28;20042;-62
2023/05/04 07:03:29;;;;;;;10.82;6.07;;;15.30;52.00;;;;;;5075753;28;20028;-63
2023/05/04 07:05:55;;;;;;;10.07;5.70;;;15.40;52.00;;;;;;5073577;28;20024;-62
2023/05/04 07:08:21;;;;;;;10.90;6.05;;;15.40;51.90;;;;;;5066783;28;20028;-62
2023/05/04 07:10:46;;;;;;;12.15;6.03;;;15.50;51.90;;;;;;5073428;28;20039;-63
2023/05/04 07:13:13;;;;;;;9.10;5.95;;;15.50;51.70;;;;;;5073993;28;20438;-63
2023/05/04 07:15:38;;;;;;;10.40;6.28;;;15.60;51.60;;;;;;5070356;28;20392;-63
2023/05/04 07:18:04;;;;;;;9.48;5.70;;;15.60;51.50;;;;;;5063557;28;20085;-63
2023/05/04 07:20:30;;;;;;;10.35;6.10;;;15.60;51.60;;;;;;5074038;28;20031;-63
2023/05/04 07:22:56;;;;;;;9.82;6.28;;;15.60;52.00;;;;;;5075273;28;20032;-63
2023/05/04 07:25:26;;;;;;;10.55;6.93;;;15.70;51.40;;;;;;5061409;28;20040;-62
2023/05/04 07:27:53;;;;;;;9.68;5.88;;;15.80;51.30;;;;;;5061565;28;20021;-63
2023/05/04 07:30:19;;;;;;;10.15;6.03;;;15.90;51.30;;;;;;5061740;28;20452;-63
2023/05/04 07:32:45;;;;;;;9.57;6.15;;;15.90;51.20;;;;;;5075780;28;20036;-62
2023/05/04 07:35:11;;;;;;;9.40;6.78;;;15.80;51.30;;;;;;5064964;28;20028;-63
2023/05/04 07:37:37;;;;;;;10.35;6.18;;;15.90;51.40;;;;;;5074202;28;20055;-63
2023/05/04 07:40:04;;;;;;;8.68;5.75;;;16.00;51.30;;;;;;5046818;28;20074;-64
2023/05/04 07:42:30;;;;;;;10.73;6.60;;;16.10;51.10;;;;;;5064803;28;20036;-63
2023/05/04 07:44:57;;;;;;;9.18;6.28;;;16.30;51.00;;;;;;5065782;28;20033;-63
2023/05/04 07:47:22;;;;;;;8.95;6.20;;;16.40;50.80;;;;;;5072400;28;20453;-63
2023/05/04 07:49:48;;;;;;;9.75;5.63;;;16.60;50.70;;;;;;5059749;28;20036;-63
2023/05/04 07:52:14;;;;;;;9.40;5.40;;;16.80;50.50;;;;;;5065338;28;20059;-63
2023/05/04 07:54:40;;;;;;;8.18;5.28;;;16.90;50.40;;;;;;5066862;28;20326;-63
2023/05/04 07:57:06;;;;;;;9.23;5.47;;;17.10;50.30;;;;;;5055995;28;20044;-63
2023/05/04 07:59:32;;;;;;;9.65;5.72;;;17.30;50.10;;;;;;5055011;28;20037;-63
2023/05/04 08:01:58;;;;;;;9.98;5.53;;;17.30;49.90;;;;;;5054852;28;20407;-63
2023/05/04 08:04:24;;;;;;;9.10;5.70;;;17.40;49.80;;;;;;5055229;28;20032;-63
2023/05/04 08:06:50;;;;;;;8.32;5.43;;;17.50;49.70;;;;;;5066553;28;20033;-63
2023/05/04 08:09:17;;;;;;;9.80;5.05;;;17.50;49.40;;;;;;5074628;28;20441;-63
2023/05/04 08:11:44;;;;;;;8.60;5.47;;;17.60;49.30;;;;;;5071619;28;20464;-63
2023/05/04 08:14:10;;;;;;;8.90;5.60;;;17.70;49.20;;;;;;5057115;28;20465;-63
2023/05/04 08:16:36;;;;;;;8.25;4.60;;;17.80;49.10;;;;;;5074014;28;20032;-63
2023/05/04 08:19:01;;;;;;;9.93;5.28;;;18.00;48.90;;;;;;5074501;28;20127;-63
2023/05/04 08:21:27;;;;;;;8.18;5.28;;;18.30;48.70;;;;;;5071277;28;20073;-63
2023/05/04 08:23:53;;;;;;;9.55;5.65;;;18.40;48.40;;;;;;5073602;28;20024;-63
2023/05/04 08:26:19;;;;;;;8.25;5.22;;;18.60;48.20;;;;;;5060563;28;20433;-63
2023/05/04 08:28:45;;;;;;;8.82;5.75;;;18.70;48.00;;;;;;5074318;28;20028;-63
2023/05/04 08:31:11;;;;;;;9.48;5.47;;;18.80;47.90;;;;;;5074343;28;20314;-63
2023/05/04 08:33:37;;;;;;;9.85;5.68;;;18.70;47.70;;;;;;5072904;28;20103;-63
2023/05/04 08:36:04;;;;;;;11.00;5.13;;;18.60;47.70;;;;;;5073806;28;20111;-63
2023/05/04 08:38:30;;;;;;;8.30;5.03;;;18.50;47.90;;;;;;5074158;28;20029;-63
2023/05/04 08:40:56;;;;;;;8.75;5.15;;;18.50;48.00;;;;;;5073935;28;20089;-63
2023/05/04 08:43:22;;;;;;;9.18;4.75;;;18.60;47.90;;;;;;5069097;28;20036;-63
2023/05/04 08:45:49;;;;;;;9.10;4.50;;;18.70;47.70;;;;;;5073202;28;20017;-63
2023/05/04 08:48:15;;;;;;;8.20;5.20;;;18.80;47.80;;;;;;5074806;28;20016;-63
2023/05/04 08:50:41;;;;;;;7.88;4.63;;;18.80;47.70;;;;;;5074606;28;20126;-63
2023/05/04 08:53:12;;;;;;;8.73;4.45;;;19.00;47.60;;;;;;5070100;28;20125;-63
2023/05/04 08:55:40;;;;;;;16.67;4.80;;;19.00;47.40;;;;;;5062727;28;20386;-64
2023/05/04 08:58:11;;;;;;;7.63;4.30;;;19.10;47.40;;;;;;5074114;28;20028;-64
2023/05/04 09:00:38;;;;;;;8.15;4.57;;;19.10;47.30;;;;;;5073961;28;20040;-63
2023/05/04 09:03:06;;;;;;;8.15;4.90;;;19.10;47.20;;;;;;5072788;28;20115;-63
2023/05/04 09:05:33;;;;;;;7.88;4.40;;;19.20;47.10;;;;;;5070710;28;20032;-63
2023/05/04 09:07:58;;;;;;;9.35;5.18;;;19.20;47.00;;;;;;5070871;28;20032;-63
2023/05/04 09:10:24;;;;;;;8.32;4.85;;;19.30;47.00;;;;;;5074344;28;20429;-63
2023/05/04 09:12:54;;;;;;;8.60;4.68;;;19.30;46.90;;;;;;5073238;28;20074;-62
2023/05/04 09:15:21;;;;;;;8.65;4.53;;;19.40;46.90;;;;;;5060836;28;20089;-63
2023/05/04 09:18:02;;;;;;;9.65;4.38;;;19.40;46.80;;;;;;5071116;28;20060;-62
2023/05/04 09:20:29;;;;;;;7.53;4.50;;;19.50;46.70;;;;;;5074276;28;20481;-63
2023/05/04 09:23:05;;;;;;;7.57;4.10;;;19.50;46.50;;;;;;5070545;28;20301;-63
2023/05/04 09:25:33;;;;;;;9.02;4.50;;;19.60;46.50;;;;;;5064157;28;20441;-63
2023/05/04 09:27:59;;;;;;;7.43;4.40;;;19.60;46.30;;;;;;5071845;28;20028;-63
2023/05/04 09:30:25;;;;;;;9.18;4.35;;;19.70;46.50;;;;;;5072801;28;20024;-63
2023/05/04 09:32:51;;;;;;;8.55;4.45;;;19.80;46.40;;;;;;5067606;28;20468;-63
2023/05/04 09:35:29;;;;;;;8.00;4.75;;;19.90;46.30;;;;;;5065181;28;20025;-62
2023/05/04 09:37:55;;;;;;;7.55;4.72;;;20.00;46.20;;;;;;5070143;28;20033;-63
2023/05/04 09:40:31;;;;;;;8.73;4.75;;;20.00;46.30;;;;;;5073802;28;20032;-64
2023/05/04 09:42:57;;;;;;;9.40;4.35;;;20.10;46.30;;;;;;5073018;28;20095;-63
2023/05/04 09:45:23;;;;;;;9.05;4.40;;;20.10;46.30;;;;;;5065517;28;20130;-64
2023/05/04 09:47:51;;;;;;;9.85;4.97;;;20.20;46.40;;;;;;5073100;28;20033;-64
2023/05/04 09:50:21;;;;;;;8.02;4.60;;;20.20;46.40;;;;;;5076384;28;20037;-64
2023/05/04 09:52:49;;;;;;;11.05;4.90;;;20.30;46.40;;;;;;5076149;28;20033;-63
2023/05/04 09:55:17;;;;;;;8.45;4.85;;;20.30;46.20;;;;;;5068110;28;20139;-64
2023/05/04 09:57:44;;;;;;;9.20;4.80;;;20.40;46.10;;;;;;5072341;28;20047;-64
2023/05/04 10:00:17;;;;;;;8.10;4.68;;;20.60;46.00;;;;;;5072819;28;20027;-64
2023/05/04 10:02:45;;;;;;;7.13;4.35;;;20.70;45.90;;;;;;5071616;28;20445;-64
2023/05/04 10:05:20;;;;;;;8.98;5.13;;;20.90;45.70;;;;;;5071390;28;20089;-64
2023/05/04 10:07:46;;;;;;;8.80;4.68;;;21.00;45.30;;;;;;5069333;28;20024;-64
2023/05/04 10:10:14;;;;;;;8.82;4.80;;;21.10;45.30;;;;;;5071866;28;20335;-63
2023/05/04 10:12:39;;;;;;;8.93;3.90;;;21.20;45.20;;;;;;5073451;28;20028;-64
2023/05/04 10:15:10;;;;;;;7.20;4.88;;;21.40;45.20;;;;;;5061308;28;20381;-63
2023/05/04 10:18:07;;;;;;;8.10;4.40;;;21.50;44.80;;;;;;5063558;28;20043;-64
2023/05/04 10:20:39;;;;;;;7.03;4.07;;;21.50;44.90;;;;;;5062243;28;20490;-64
2023/05/04 10:23:31;;;;;;;7.63;4.30;;;21.60;44.70;;;;;;5056805;28;20033;-64
2023/05/04 10:26:32;;;;;;;9.13;4.22;;;21.80;44.60;;;;;;5020459;28;20044;-64
2023/05/04 10:29:18;;;;;;;8.57;4.03;;;21.90;44.50;;;;;;5062452;28;20087;-64
2023/05/04 10:31:44;;;;;;;8.43;4.00;;;22.10;44.30;;;;;;5068574;28;20464;-63
2023/05/04 10:34:10;;;;;;;8.25;3.67;;;22.10;43.90;;;;;;5056078;28;20100;-64
2023/05/04 10:36:37;;;;;;;8.52;4.50;;;22.20;43.80;;;;;;5063368;28;20033;-64
2023/05/04 10:39:24;;;;;;;7.90;4.45;;;22.40;43.90;;;;;;5061753;28;20040;-64
2023/05/04 10:42:03;;;;;;;10.13;4.25;;;22.50;43.60;;;;;;5061652;28;20044;-64
2023/05/04 10:44:33;;;;;;;7.50;3.95;;;22.60;43.50;;;;;;5061121;28;20106;-64
2023/05/04 10:47:01;;;;;;;7.70;4.40;;;22.70;43.30;;;;;;5071384;28;20037;-64
2023/05/04 10:49:27;;;;;;;6.68;3.88;;;22.80;43.20;;;;;;5065068;28;20029;-64
2023/05/04 10:52:08;;;;;;;7.75;4.03;;;22.80;43.00;;;;;;5066611;28;20017;-64
2023/05/04 10:54:35;;;;;;;7.85;4.10;;;22.90;42.80;;;;;;5070539;28;20036;-64
2023/05/04 10:57:07;;;;;;;8.43;4.47;;;23.00;42.70;;;;;;5073685;28;20036;-64
2023/05/04 10:59:33;;;;;;;7.93;3.78;;;23.00;42.30;;;;;;5073532;28;20099;-64
2023/05/04 11:02:01;;;;;;;8.00;3.92;;;23.00;42.30;;;;;;5073922;28;20033;-64
2023/05/04 11:04:27;;;;;;;10.32;4.35;;;23.10;42.40;;;;;;5069662;28;20040;-64
2023/05/04 11:07:04;;;;;;;8.35;4.63;;;23.20;42.10;;;;;;5074001;28;20460;-64
2023/05/04 11:09:41;;;;;;;9.57;4.60;;;23.20;41.90;;;;;;5068821;28;20040;-64
2023/05/04 11:12:10;;;;;;;9.32;4.20;;;23.30;41.90;;;;;;5069056;28;20344;-64
2023/05/04 11:14:41;;;;;;;7.55;4.38;;;23.30;41.90;;;;;;5061343;28;20029;-64
2023/05/04 11:17:11;;;;;;;7.65;4.32;;;23.40;41.70;;;;;;5073331;28;20043;-64
2023/05/04 11:19:50;;;;;;;7.95;4.22;;;23.40;41.50;;;;;;5066104;28;20058;-64
2023/05/04 11:22:17;;;;;;;9.38;4.32;;;23.40;41.30;;;;;;5068958;28;20056;-64
2023/05/04 11:24:44;;;;;;;7.38;3.88;;;23.40;41.20;;;;;;5068406;28;20017;-63
2023/05/04 11:27:24;;;;;;;8.25;4.15;;;23.40;41.20;;;;;;5064923;28;20466;-64
2023/05/04 11:29:58;;;;;;;8.98;4.63;;;23.40;40.70;;;;;;5061282;28;20118;-64
2023/05/04 11:32:33;;;;;;;8.85;4.28;;;23.50;40.80;;;;;;5069239;28;20159;-64
2023/05/04 11:34:59;;;;;;;10.45;4.30;;;23.60;40.80;;;;;;5058644;28;20161;-64
2023/05/04 11:37:28;;;;;;;7.82;4.15;;;23.60;40.90;;;;;;5063002;28;20391;-64
2023/05/04 11:39:55;;;;;;;8.60;4.05;;;23.70;40.80;;;;;;5060476;28;20060;-64
2023/05/04 11:42:21;;;;;;;7.80;4.00;;;23.70;40.50;;;;;;5065023;28;20206;-64
2023/05/04 11:44:48;;;;;;;8.32;4.43;;;23.70;40.10;;;;;;5055726;28;20315;-64
2023/05/04 11:47:14;;;;;;;9.93;4.60;;;23.70;40.20;;;;;;5058510;28;20119;-64
2023/05/04 11:49:41;;;;;;;8.30;3.88;;;23.70;40.10;;;;;;5060318;28;20454;-64
2023/05/04 11:52:07;;;;;;;7.82;4.18;;;23.70;40.10;;;;;;5056668;28;20044;-64
2023/05/04 11:54:33;;;;;;;7.50;4.38;;;23.60;40.00;;;;;;5059951;28;20025;-64
2023/05/04 11:57:02;;;;;;;8.00;4.28;;;23.50;40.10;;;;;;5054851;28;20104;-65
2023/05/04 11:59:28;;;;;;;8.75;4.35;;;23.50;40.00;;;;;;5060536;28;20093;-64
2023/05/04 12:01:55;;;;;;;8.57;4.47;;;23.50;40.00;;;;;;5056871;28;20505;-64
2023/05/04 12:04:21;;;;;;;9.57;4.75;;;23.40;40.00;;;;;;5061696;28;20071;-64
2023/05/04 12:06:47;;;;;;;7.68;4.30;;;23.40;40.10;;;;;;5054700;28;20056;-64
2023/05/04 12:09:13;;;;;;;7.43;4.00;;;23.40;40.00;;;;;;5060901;28;20037;-64
2023/05/04 12:11:39;;;;;;;8.80;4.28;;;23.30;39.90;;;;;;5063696;28;20039;-64
2023/05/04 12:14:10;;;;;;;7.35;4.25;;;23.30;40.00;;;;;;5057822;28;20029;-64
2023/05/04 12:16:37;;;;;;;8.70;5.07;;;23.30;40.10;;;;;;5054542;28;20013;-64
2023/05/04 12:19:05;;;;;;;8.05;4.95;;;23.30;39.90;;;;;;5059785;28;20064;-64
2023/05/04 12:21:31;;;;;;;9.05;4.85;;;23.30;39.90;;;;;;5067223;28;20059;-64
2023/05/04 12:23:58;;;;;;;8.63;4.55;;;23.20;39.90;;;;;;5067157;28;20108;-64
2023/05/04 12:26:25;;;;;;;9.93;4.75;;;23.20;40.10;;;;;;5060157;28;20074;-64
2023/05/04 12:28:50;;;;;;;7.20;4.03;;;23.20;39.90;;;;;;5068102;28;20115;-64
2023/05/04 12:31:16;;;;;;;8.68;4.47;;;23.10;39.90;;;;;;5065324;28;20127;-64
2023/05/04 12:33:42;;;;;;;7.40;4.10;;;23.10;40.10;;;;;;5068470;28;20044;-64
2023/05/04 12:36:09;;;;;;;8.13;4.20;;;23.10;40.00;;;;;;5062645;28;20111;-64
2023/05/04 12:38:36;;;;;;;9.30;4.35;;;23.00;39.60;;;;;;5065384;28;20124;-64
2023/05/04 12:41:03;;;;;;;9.85;4.82;;;23.00;39.40;;;;;;5056962;28;20024;-64
2023/05/04 12:43:32;;;;;;;9.43;4.63;;;22.90;39.40;;;;;;5060477;28;20479;-64
2023/05/04 12:45:58;;;;;;;7.63;4.70;;;22.90;39.50;;;;;;5054431;28;20020;-64